Time;durP1;ratioP1;P1;durP2;ratioP2;P2;SDS_P1;SDS_P2;PMS_P1;PMS_P2;Temp;Humidity;BMP_temperature;BMP_pressure;BME280_temperature;BME280_humidity;BME280_pressure;Samples;Min_cycle;Max_cycle;Signal;HPM_P1;HPM_P2
2022/05/16 00:00:18;;;;;;;1.30;0.45;;;6.70;99.90;;;;;;5017350;28;20399;-83
2022/05/16 00:02:46;;;;;;;1.73;0.40;;;6.80;99.90;;;;;;5024609;28;20409;-84
2022/05/16 00:05:14;;;;;;;1.90;0.40;;;6.70;99.90;;;;;;5021844;28;20399;-83
2022/05/16 00:07:42;;;;;;;1.63;0.30;;;6.70;99.90;;;;;;5019321;28;20395;-83
2022/05/16 00:10:10;;;;;;;1.75;0.40;;;6.80;99.90;;;;;;5007881;28;20428;-84
2022/05/16 00:12:38;;;;;;;1.60;0.50;;;6.80;99.90;;;;;;5009089;28;20419;-83
2022/05/16 00:15:08;;;;;;;1.75;0.40;;;6.90;99.90;;;;;;5004628;28;20409;-84
2022/05/16 00:17:36;;;;;;;3.13;0.43;;;6.70;99.90;;;;;;5012546;28;20446;-84
2022/05/16 00:20:04;;;;;;;2.65;0.60;;;6.60;99.90;;;;;;5004757;28;20833;-83
2022/05/16 00:22:32;;;;;;;1.10;0.50;;;6.50;99.90;;;;;;5019782;28;20837;-84
2022/05/16 00:25:00;;;;;;;1.73;0.52;;;6.60;99.90;;;;;;5016313;28;20468;-83
2022/05/16 00:27:27;;;;;;;0.63;0.30;;;6.60;99.90;;;;;;5012476;28;20744;-84
2022/05/16 00:29:56;;;;;;;1.77;0.65;;;6.50;99.90;;;;;;5023936;28;20401;-84
2022/05/16 00:32:24;;;;;;;0.68;0.30;;;6.60;99.90;;;;;;5046351;28;20408;-83
2022/05/16 00:34:52;;;;;;;2.00;0.50;;;6.60;99.90;;;;;;5016657;28;20895;-83
2022/05/16 00:37:20;;;;;;;2.50;0.50;;;6.70;99.90;;;;;;5015647;28;20414;-84
2022/05/16 00:39:47;;;;;;;1.42;0.40;;;6.60;99.90;;;;;;5013170;28;20412;-83
2022/05/16 00:42:15;;;;;;;3.20;0.43;;;6.70;99.90;;;;;;5020089;28;20411;-83
2022/05/16 00:44:42;;;;;;;1.58;0.40;;;6.50;99.90;;;;;;5012928;28;20814;-83
2022/05/16 00:47:11;;;;;;;2.88;0.50;;;6.40;99.90;;;;;;5011059;28;20894;-83
2022/05/16 00:49:43;;;;;;;0.88;0.30;;;6.50;99.90;;;;;;5015513;28;20436;-83
2022/05/16 00:52:14;;;;;;;1.17;0.38;;;6.60;99.90;;;;;;5030747;28;20482;-84
2022/05/16 00:54:48;;;;;;;1.55;0.50;;;6.60;99.90;;;;;;5014236;28;20404;-83
2022/05/16 00:57:24;;;;;;;1.75;0.50;;;6.50;99.90;;;;;;5017575;28;20407;-83
2022/05/16 01:00:18;;;;;;;1.92;0.40;;;6.50;99.90;;;;;;4993681;28;20406;-83
2022/05/16 01:05:44;;;;;;;2.17;0.50;;;6.50;99.90;;;;;;5008723;28;20424;-84
2022/05/16 01:08:24;;;;;;;1.30;0.40;;;6.50;99.90;;;;;;5014214;28;20838;-84
2022/05/16 01:10:58;;;;;;;1.90;0.43;;;6.30;99.90;;;;;;5017665;28;20440;-84
2022/05/16 01:13:29;;;;;;;1.38;0.40;;;6.40;99.90;;;;;;5014642;28;20412;-84
2022/05/16 01:15:59;;;;;;;1.20;0.43;;;6.40;99.90;;;;;;5029380;28;20408;-83
2022/05/16 01:18:28;;;;;;;1.40;0.40;;;6.20;99.90;;;;;;5018664;28;20407;-84
2022/05/16 01:21:28;;;;;;;0.97;0.30;;;6.40;99.90;;;;;;5037774;28;20466;-83
2022/05/16 01:24:04;;;;;;;1.80;0.70;;;6.30;99.90;;;;;;5018057;28;20877;-84
2022/05/16 01:26:33;;;;;;;1.80;0.40;;;6.40;99.90;;;;;;5014415;28;20406;-84
2022/05/16 01:29:01;;;;;;;2.88;0.55;;;6.20;99.90;;;;;;5012227;28;20409;-84
2022/05/16 01:31:29;;;;;;;2.45;0.73;;;6.30;99.90;;;;;;5012620;28;20518;-83
2022/05/16 01:33:57;;;;;;;1.25;0.43;;;6.30;99.90;;;;;;5019548;28;20401;-83
2022/05/16 01:36:25;;;;;;;1.98;0.40;;;6.40;99.90;;;;;;5018071;28;20450;-83
2022/05/16 01:38:53;;;;;;;1.52;0.50;;;6.30;99.90;;;;;;5041211;28;20452;-84
2022/05/16 01:41:26;;;;;;;1.13;0.30;;;6.30;99.90;;;;;;5019727;28;20396;-83
2022/05/16 01:43:57;;;;;;;2.00;0.40;;;6.20;99.90;;;;;;5016620;28;20404;-84
2022/05/16 01:46:30;;;;;;;1.30;0.50;;;6.40;99.90;;;;;;5004303;28;20496;-83
2022/05/16 01:48:58;;;;;;;1.83;0.40;;;6.30;99.90;;;;;;4992055;28;20936;-83
2022/05/16 01:51:26;;;;;;;2.08;0.50;;;6.20;99.90;;;;;;5016536;28;20757;-83
2022/05/16 01:53:54;;;;;;;1.75;0.50;;;6.30;99.90;;;;;;5021338;28;20398;-83
2022/05/16 01:56:22;;;;;;;1.60;0.30;;;6.40;99.90;;;;;;5009040;28;20563;-83
2022/05/16 01:58:50;;;;;;;1.38;0.40;;;6.40;99.90;;;;;;5018084;28;20496;-83
2022/05/16 02:01:17;;;;;;;1.55;0.50;;;6.30;99.90;;;;;;5015513;28;20417;-83
2022/05/16 02:03:47;;;;;;;2.08;0.40;;;6.20;99.90;;;;;;5005817;28;20953;-83
2022/05/16 02:06:16;;;;;;;2.00;0.40;;;6.20;99.90;;;;;;5013310;28;20424;-84
2022/05/16 02:08:44;;;;;;;2.47;0.43;;;6.20;99.90;;;;;;5015807;28;20493;-83
2022/05/16 02:11:12;;;;;;;2.30;0.40;;;6.30;99.90;;;;;;5016168;28;20452;-83
2022/05/16 02:13:41;;;;;;;2.30;0.40;;;6.10;99.90;;;;;;5006705;28;20419;-83
2022/05/16 02:16:09;;;;;;;1.53;0.40;;;6.10;99.90;;;;;;5015753;28;20410;-82
2022/05/16 02:18:38;;;;;;;1.60;0.40;;;6.10;99.90;;;;;;5004330;28;20892;-84
2022/05/16 02:26:46;;;;;;;1.80;0.30;;;6.10;99.90;;;;;;5045195;28;20411;-83
2022/05/16 02:29:16;;;;;;;1.10;0.40;;;6.20;99.90;;;;;;5041855;28;20437;-83
2022/05/16 02:31:43;;;;;;;1.55;0.40;;;6.10;99.90;;;;;;5013038;28;20410;-83
2022/05/16 02:34:12;;;;;;;3.95;0.40;;;6.00;99.90;;;;;;5007002;28;20901;-83
2022/05/16 02:36:39;;;;;;;4.60;0.68;;;6.00;99.90;;;;;;5024556;28;20397;-83
2022/05/16 02:39:07;;;;;;;1.60;0.40;;;6.10;99.90;;;;;;5010636;28;20913;-84
2022/05/16 02:41:35;;;;;;;2.27;0.53;;;6.10;99.90;;;;;;5018664;28;20470;-83
2022/05/16 02:44:03;;;;;;;2.78;0.40;;;6.10;99.90;;;;;;5013802;28;20385;-84
2022/05/16 02:46:31;;;;;;;1.38;0.40;;;6.00;99.90;;;;;;5037180;28;20399;-84
2022/05/16 02:48:59;;;;;;;1.38;0.40;;;6.10;99.90;;;;;;5046147;28;20402;-83
2022/05/16 02:51:27;;;;;;;2.30;0.40;;;5.90;99.90;;;;;;5047147;28;20408;-82
2022/05/16 02:53:55;;;;;;;2.55;0.40;;;6.00;99.90;;;;;;4983522;28;20959;-84
2022/05/16 02:56:23;;;;;;;1.40;0.30;;;6.00;99.90;;;;;;5018466;28;20411;-83
2022/05/16 02:58:50;;;;;;;2.50;0.50;;;5.90;99.90;;;;;;5017768;28;20412;-81
2022/05/16 03:01:18;;;;;;;2.90;0.47;;;5.90;99.90;;;;;;5010516;28;20783;-83
2022/05/16 03:03:46;;;;;;;1.20;0.53;;;5.90;99.90;;;;;;5014682;28;20407;-83
2022/05/16 03:06:13;;;;;;;1.10;0.40;;;6.00;99.90;;;;;;5042342;28;20449;-83
2022/05/16 03:08:41;;;;;;;1.08;0.40;;;5.90;99.90;;;;;;5019200;28;20406;-83
2022/05/16 03:11:09;;;;;;;1.10;0.40;;;5.90;99.90;;;;;;5008297;28;20397;-83
2022/05/16 03:13:37;;;;;;;1.40;0.40;;;5.80;99.90;;;;;;5038138;28;20399;-84
2022/05/16 03:16:05;;;;;;;2.03;0.40;;;5.80;99.90;;;;;;5013341;28;20430;-84
2022/05/16 03:18:33;;;;;;;1.50;0.35;;;5.80;99.90;;;;;;5016553;28;20820;-84
2022/05/16 03:21:01;;;;;;;2.43;0.50;;;5.70;99.90;;;;;;5013274;28;20382;-84
2022/05/16 03:23:28;;;;;;;2.10;0.38;;;5.80;99.90;;;;;;5015105;28;20476;-84
2022/05/16 03:25:56;;;;;;;3.73;0.70;;;5.80;99.90;;;;;;5012961;28;20401;-84
2022/05/16 03:28:25;;;;;;;2.10;0.40;;;5.80;99.90;;;;;;5024166;28;20414;-85
2022/05/16 03:30:57;;;;;;;2.05;0.50;;;5.80;99.90;;;;;;5011783;28;20393;-84
2022/05/16 03:33:25;;;;;;;1.33;0.40;;;5.90;99.90;;;;;;5049460;28;20476;-84
2022/05/16 03:35:55;;;;;;;2.27;0.50;;;5.90;99.90;;;;;;5009593;28;20433;-84
2022/05/16 03:41:15;;;;;;;1.08;0.40;;;5.90;99.90;;;;;;5016986;28;20456;-84
2022/05/16 03:43:43;;;;;;;1.50;0.40;;;5.90;99.90;;;;;;4998946;28;20919;-84
2022/05/16 03:46:11;;;;;;;1.35;0.30;;;5.90;99.90;;;;;;4997138;28;20404;-85
2022/05/16 03:48:39;;;;;;;1.50;0.40;;;5.90;99.90;;;;;;5024494;28;20934;-85
2022/05/16 03:51:10;;;;;;;2.60;0.40;;;6.00;99.90;;;;;;5017421;28;20895;-84
2022/05/16 03:53:47;;;;;;;1.13;0.30;;;6.00;99.90;;;;;;5014791;28;20440;-84
2022/05/16 03:56:18;;;;;;;2.10;0.43;;;6.10;99.90;;;;;;5022798;28;20859;-85
2022/05/16 03:58:46;;;;;;;2.42;0.40;;;6.10;99.90;;;;;;5016343;28;20467;-85
2022/05/16 04:01:14;;;;;;;1.77;0.40;;;6.10;99.90;;;;;;5014594;28;20395;-85
2022/05/16 04:03:43;;;;;;;2.10;0.40;;;6.10;99.90;;;;;;5009817;28;20405;-85
2022/05/16 04:06:13;;;;;;;2.80;0.40;;;6.10;99.90;;;;;;5014750;28;20576;-86
2022/05/16 04:08:44;;;;;;;2.72;0.40;;;6.10;99.90;;;;;;5019855;28;20445;-85
2022/05/16 04:11:17;;;;;;;2.28;0.47;;;6.10;99.90;;;;;;5014788;28;20417;-85
2022/05/16 04:13:46;;;;;;;1.35;0.40;;;6.20;99.90;;;;;;5010393;28;20487;-85
2022/05/16 04:16:14;;;;;;;5.20;1.00;;;6.20;99.90;;;;;;5016564;28;20439;-84
2022/05/16 04:18:44;;;;;;;2.25;0.60;;;6.20;99.90;;;;;;5035112;28;20403;-83
2022/05/16 04:21:12;;;;;;;2.05;0.70;;;6.30;99.90;;;;;;5020249;28;20398;-85
2022/05/16 04:23:41;;;;;;;1.60;0.50;;;6.30;99.90;;;;;;4999391;28;20395;-84
2022/05/16 04:26:08;;;;;;;2.47;0.50;;;6.30;99.90;;;;;;5004009;28;20402;-85
2022/05/16 04:28:36;;;;;;;2.63;0.43;;;6.40;99.90;;;;;;5020728;28;20389;-85
2022/05/16 04:31:03;;;;;;;1.25;0.57;;;6.40;99.90;;;;;;5021223;28;20416;-85
2022/05/16 04:33:35;;;;;;;1.00;0.40;;;6.40;99.90;;;;;;5017259;28;20409;-84
2022/05/16 04:36:03;;;;;;;1.63;0.40;;;6.40;99.90;;;;;;5006895;28;20462;-84
2022/05/16 04:38:31;;;;;;;2.15;0.52;;;6.50;99.90;;;;;;5012193;28;20399;-85
2022/05/16 04:43:45;;;;;;;2.30;0.60;;;6.60;99.90;;;;;;5008644;28;20449;-85
2022/05/16 04:46:13;;;;;;;2.67;0.93;;;6.60;99.90;;;;;;5014141;28;20425;-85
2022/05/16 04:48:41;;;;;;;3.13;0.60;;;6.60;99.90;;;;;;5018414;28;20482;-84
2022/05/16 04:51:08;;;;;;;2.90;0.70;;;6.70;99.90;;;;;;5018765;28;20390;-83
2022/05/16 04:53:36;;;;;;;2.40;0.70;;;6.70;99.90;;;;;;5020273;28;20413;-86
2022/05/16 04:56:05;;;;;;;1.58;0.60;;;6.70;99.90;;;;;;5007129;28;20408;-84
2022/05/16 04:58:33;;;;;;;1.58;0.50;;;6.80;99.90;;;;;;5021565;28;20494;-86
2022/05/16 05:01:02;;;;;;;3.10;0.70;;;6.80;99.90;;;;;;5009446;28;20492;-85
2022/05/16 05:03:30;;;;;;;2.17;0.60;;;6.90;99.90;;;;;;4999282;28;20501;-85
2022/05/16 05:05:58;;;;;;;1.90;0.70;;;6.90;99.90;;;;;;5010911;28;20428;-85
2022/05/16 05:08:26;;;;;;;2.22;0.70;;;7.00;99.90;;;;;;4995572;28;20413;-85
2022/05/16 05:16:27;;;;;;;0.90;0.40;;;7.20;99.90;;;;;;5019439;28;20412;-85
2022/05/16 05:18:54;;;;;;;1.58;0.40;;;7.20;99.90;;;;;;5018072;28;20433;-85
2022/05/16 05:21:22;;;;;;;3.20;0.65;;;7.30;99.90;;;;;;5017444;28;20415;-85
2022/05/16 05:23:52;;;;;;;4.20;0.90;;;7.30;99.90;;;;;;5033417;28;20520;-86
2022/05/16 05:26:20;;;;;;;2.78;0.60;;;7.30;99.90;;;;;;5049094;27;20947;-85
2022/05/16 05:28:48;;;;;;;2.38;0.60;;;7.50;99.90;;;;;;5011303;28;20891;-85
2022/05/16 05:31:25;;;;;;;1.98;0.57;;;7.50;99.90;;;;;;5015818;28;20402;-85
2022/05/16 05:33:54;;;;;;;2.05;0.50;;;7.60;99.90;;;;;;5012658;28;20500;-85
2022/05/16 05:36:25;;;;;;;2.35;0.50;;;7.70;99.90;;;;;;5013120;28;20411;-86
2022/05/16 05:38:53;;;;;;;1.73;0.70;;;7.70;99.90;;;;;;5015703;28;20463;-85
2022/05/16 05:41:22;;;;;;;1.20;0.60;;;7.90;99.90;;;;;;5017875;28;20438;-85
2022/05/16 05:43:50;;;;;;;2.40;0.50;;;7.80;99.90;;;;;;5018029;28;20402;-85
2022/05/16 05:46:18;;;;;;;2.03;0.70;;;7.80;99.90;;;;;;5018047;28;20396;-85
2022/05/16 05:48:46;;;;;;;1.75;0.40;;;7.90;99.90;;;;;;5043928;28;20480;-85
2022/05/16 05:51:15;;;;;;;3.00;0.50;;;7.90;99.90;;;;;;5015697;28;20475;-87
2022/05/16 05:53:44;;;;;;;1.48;0.50;;;7.90;99.90;;;;;;5020271;28;20400;-86
2022/05/16 05:56:13;;;;;;;2.70;0.50;;;8.00;99.90;;;;;;5021294;28;20402;-86
2022/05/16 05:58:42;;;;;;;2.30;0.60;;;8.10;99.90;;;;;;5020461;28;20405;-85
2022/05/16 06:01:10;;;;;;;2.80;0.53;;;8.10;99.90;;;;;;5019224;28;20554;-85
2022/05/16 06:03:38;;;;;;;1.48;0.40;;;8.10;99.90;;;;;;5007443;28;20512;-85
2022/05/16 06:06:05;;;;;;;1.20;0.40;;;8.30;99.90;;;;;;5009430;28;20427;-85
2022/05/16 06:08:33;;;;;;;1.05;0.43;;;8.30;99.90;;;;;;5009662;28;20423;-85
2022/05/16 06:11:01;;;;;;;1.50;0.40;;;8.30;99.90;;;;;;5014771;28;20855;-85
2022/05/16 06:13:29;;;;;;;2.55;0.40;;;8.30;99.90;;;;;;5008418;28;20789;-85
2022/05/16 06:15:57;;;;;;;2.03;0.60;;;8.30;99.90;;;;;;5011566;28;20389;-83
2022/05/16 06:18:25;;;;;;;4.35;0.80;;;8.30;99.90;;;;;;5015766;28;20891;-85
2022/05/16 06:20:53;;;;;;;1.88;0.60;;;8.40;99.90;;;;;;5017356;28;20407;-86
2022/05/16 06:23:21;;;;;;;1.38;0.50;;;8.50;99.90;;;;;;5041565;27;20453;-86
2022/05/16 06:25:48;;;;;;;2.67;0.52;;;8.60;99.90;;;;;;5015789;28;20401;-85
2022/05/16 06:28:23;;;;;;;1.52;0.70;;;8.70;99.90;;;;;;5013445;28;20382;-84
2022/05/16 06:30:52;;;;;;;2.03;0.50;;;8.80;99.90;;;;;;5021142;28;20488;-85
2022/05/16 06:33:22;;;;;;;1.50;0.70;;;8.80;99.90;;;;;;5017366;28;21002;-85
2022/05/16 06:35:50;;;;;;;2.30;0.50;;;8.80;99.90;;;;;;5008745;28;20489;-86
2022/05/16 06:38:21;;;;;;;2.00;0.50;;;8.80;99.90;;;;;;4997599;28;20803;-84
2022/05/16 06:40:49;;;;;;;3.05;0.63;;;8.80;99.90;;;;;;5016696;28;20404;-85
2022/05/16 06:43:19;;;;;;;3.55;0.65;;;8.90;99.90;;;;;;5007263;28;20536;-87
2022/05/16 06:45:47;;;;;;;3.70;0.60;;;9.00;99.90;;;;;;4997585;28;20793;-86
2022/05/16 06:48:15;;;;;;;4.03;0.60;;;9.00;99.90;;;;;;5000204;28;20794;-86
2022/05/16 06:50:46;;;;;;;2.15;0.60;;;9.00;99.90;;;;;;5032527;28;20947;-86
2022/05/16 06:53:27;;;;;;;4.47;0.70;;;9.10;99.90;;;;;;5021687;28;20479;-86
2022/05/16 06:55:55;;;;;;;4.00;0.60;;;9.40;99.90;;;;;;5012494;28;20411;-86
2022/05/16 06:58:24;;;;;;;1.57;0.57;;;9.30;99.90;;;;;;5017282;28;20405;-86
2022/05/16 07:00:51;;;;;;;2.80;0.70;;;9.30;99.90;;;;;;5014638;28;20409;-85
2022/05/16 07:03:19;;;;;;;3.67;0.60;;;9.30;99.90;;;;;;5010968;28;20397;-86
2022/05/16 07:05:49;;;;;;;1.50;0.50;;;9.20;99.90;;;;;;5038577;28;20404;-86
2022/05/16 07:08:19;;;;;;;1.85;0.60;;;9.20;99.90;;;;;;5005823;28;20401;-85
2022/05/16 07:10:48;;;;;;;1.00;0.40;;;9.30;99.90;;;;;;5005584;28;20407;-86
2022/05/16 07:13:23;;;;;;;1.67;0.52;;;9.30;99.90;;;;;;5019061;28;20451;-86
2022/05/16 07:15:51;;;;;;;2.75;0.57;;;9.40;99.90;;;;;;5004381;28;20492;-87
2022/05/16 07:18:19;;;;;;;1.52;0.50;;;9.50;99.90;;;;;;5038586;28;20408;-86
2022/05/16 07:20:47;;;;;;;3.25;0.68;;;9.50;99.90;;;;;;5017337;28;20413;-86
2022/05/16 07:23:16;;;;;;;2.28;0.52;;;9.40;99.90;;;;;;5012119;28;20409;-86
2022/05/16 07:28:30;;;;;;;2.10;0.43;;;9.50;99.90;;;;;;5021582;28;20386;-86
2022/05/16 07:30:58;;;;;;;1.00;0.50;;;9.50;99.90;;;;;;5020748;28;20429;-86
2022/05/16 07:33:27;;;;;;;1.40;0.53;;;9.50;99.90;;;;;;5020249;28;20411;-86
2022/05/16 07:35:55;;;;;;;1.83;0.50;;;9.50;99.90;;;;;;5013911;28;20895;-86
2022/05/16 07:38:25;;;;;;;2.50;0.43;;;9.50;99.90;;;;;;5013836;28;20418;-86
2022/05/16 07:40:55;;;;;;;2.33;0.70;;;9.60;99.90;;;;;;5020045;28;20405;-87
2022/05/16 07:43:24;;;;;;;3.15;0.60;;;9.60;99.90;;;;;;5048899;28;20487;-86
2022/05/16 07:45:52;;;;;;;3.20;0.50;;;9.60;99.90;;;;;;5018916;28;20401;-87
2022/05/16 07:48:20;;;;;;;3.80;0.80;;;9.50;99.90;;;;;;5018544;28;20395;-87
2022/05/16 07:50:48;;;;;;;2.20;0.60;;;9.50;99.90;;;;;;5011126;28;20409;-86
2022/05/16 07:53:16;;;;;;;1.60;0.50;;;9.60;99.90;;;;;;5017241;28;20413;-87
2022/05/16 07:55:49;;;;;;;2.20;0.60;;;9.80;99.90;;;;;;5045464;28;20766;-87
2022/05/16 07:58:17;;;;;;;3.50;0.60;;;9.80;99.90;;;;;;5003462;28;20508;-87
2022/05/16 08:00:52;;;;;;;1.05;0.50;;;10.00;99.90;;;;;;5021246;28;20406;-87
2022/05/16 08:03:22;;;;;;;1.33;0.50;;;10.00;99.90;;;;;;5035989;28;20774;-87
2022/05/16 08:05:49;;;;;;;1.65;0.70;;;10.10;99.90;;;;;;5013809;28;20823;-87
2022/05/16 08:11:04;;;;;;;2.88;0.50;;;9.80;99.90;;;;;;5017322;28;20508;-87
2022/05/16 08:13:32;;;;;;;2.80;0.50;;;9.90;99.90;;;;;;5006440;28;20421;-87
2022/05/16 08:16:00;;;;;;;2.63;0.55;;;10.00;99.90;;;;;;4997752;28;20953;-87
2022/05/16 08:18:27;;;;;;;1.85;0.60;;;10.00;99.90;;;;;;5035366;28;20425;-86
2022/05/16 08:20:56;;;;;;;4.60;0.60;;;9.90;99.90;;;;;;5011719;28;20437;-87
2022/05/16 08:23:27;;;;;;;1.30;0.50;;;10.00;99.90;;;;;;5023946;28;20451;-88
2022/05/16 08:25:56;;;;;;;1.23;0.40;;;10.30;99.90;;;;;;5002481;28;20896;-86
2022/05/16 08:28:24;;;;;;;2.05;0.60;;;10.10;99.90;;;;;;5005400;28;20492;-88
2022/05/16 08:30:53;;;;;;;2.13;0.63;;;10.00;99.90;;;;;;5017849;28;20398;-87
2022/05/16 08:33:20;;;;;;;1.58;0.40;;;10.10;99.90;;;;;;5021235;28;20387;-87
2022/05/16 08:39:52;;;;;;;1.23;0.50;;;10.40;99.90;;;;;;5017904;28;20975;-87
2022/05/16 08:41:29;;;;;;;1.52;0.65;;;10.50;99.90;;;;;;5015923;28;20782;-86
2022/05/16 08:44:09;;;;;;;2.40;0.70;;;10.40;99.90;;;;;;5017921;28;20403;-88
2022/05/16 08:47:09;;;;;;;4.82;0.60;;;10.40;99.90;;;;;;5017991;28;20819;-86
2022/05/16 08:49:43;;;;;;;2.65;0.68;;;10.50;99.90;;;;;;5022027;28;20436;-87
2022/05/16 08:52:37;;;;;;;2.35;0.50;;;10.70;99.90;;;;;;5047639;28;20408;-87
2022/05/16 08:55:08;;;;;;;1.38;0.60;;;10.90;99.90;;;;;;5033669;28;20811;-87
2022/05/16 08:57:51;;;;;;;1.88;0.65;;;10.90;99.60;;;;;;5016798;28;20394;-88
2022/05/16 09:00:57;;;;;;;1.35;0.55;;;10.90;99.90;;;;;;4999805;28;20964;-87
2022/05/16 09:03:51;;;;;;;1.58;0.60;;;10.80;99.90;;;;;;5004451;28;20408;-87
2022/05/16 09:06:25;;;;;;;7.32;0.70;;;10.70;99.90;;;;;;5013721;28;20447;-87
2022/05/16 09:08:56;;;;;;;1.25;0.50;;;10.60;99.90;;;;;;5017069;28;20480;-88
2022/05/16 09:11:48;;;;;;;3.15;0.60;;;10.70;99.90;;;;;;5015703;28;20940;-87
2022/05/16 09:14:41;;;;;;;1.98;0.45;;;10.90;99.90;;;;;;4995922;28;20409;-88
2022/05/16 09:17:28;;;;;;;1.70;0.50;;;11.00;99.90;;;;;;4998540;28;20407;-86
2022/05/16 09:20:12;;;;;;;1.80;0.70;;;10.90;99.80;;;;;;5012166;28;21003;-87
2022/05/16 09:23:11;;;;;;;2.37;0.60;;;11.00;99.80;;;;;;5047542;28;20417;-89
2022/05/16 09:25:47;;;;;;;2.40;0.60;;;11.20;98.00;;;;;;5011376;28;20422;-87
2022/05/16 09:31:28;;;;;;;3.05;0.60;;;11.50;99.90;;;;;;5043037;28;20477;-86
2022/05/16 09:33:58;;;;;;;1.83;0.60;;;11.50;99.50;;;;;;5019101;28;20406;-87
2022/05/16 09:36:32;;;;;;;1.38;0.50;;;11.40;99.50;;;;;;5011382;28;20432;-87
2022/05/16 09:39:00;;;;;;;1.75;0.60;;;11.40;97.50;;;;;;4990194;28;20929;-87
2022/05/16 09:41:44;;;;;;;1.83;0.43;;;11.50;99.80;;;;;;5016957;28;20405;-87
2022/05/16 09:44:31;;;;;;;1.45;0.60;;;11.50;97.30;;;;;;5016577;28;20390;-87
2022/05/16 09:47:26;;;;;;;2.63;0.65;;;11.50;97.30;;;;;;5008717;28;20405;-87
2022/05/16 09:50:02;;;;;;;2.17;0.50;;;11.80;96.80;;;;;;5002249;28;20435;-87
2022/05/16 09:52:33;;;;;;;2.30;0.60;;;11.70;97.50;;;;;;5016769;28;20793;-88
2022/05/16 09:55:09;;;;;;;2.92;0.60;;;11.90;95.70;;;;;;5002963;28;20436;-87
2022/05/16 09:57:47;;;;;;;1.77;0.50;;;12.00;96.50;;;;;;5017847;28;20777;-86
2022/05/16 10:00:41;;;;;;;2.65;0.50;;;11.90;94.40;;;;;;5043570;28;20405;-87
2022/05/16 10:03:42;;;;;;;2.10;0.60;;;11.90;96.20;;;;;;5011874;28;20410;-89
2022/05/16 10:06:37;;;;;;;1.00;0.50;;;12.10;95.10;;;;;;4996006;28;20414;-87
2022/05/16 10:09:11;;;;;;;2.90;0.70;;;12.20;97.00;;;;;;5046873;27;20856;-87
2022/05/16 10:11:39;;;;;;;2.25;0.63;;;12.20;96.20;;;;;;5016022;28;20454;-87
2022/05/16 10:14:11;;;;;;;2.42;0.70;;;12.20;93.90;;;;;;5018658;28;20413;-87
2022/05/16 10:16:45;;;;;;;1.70;0.57;;;12.10;94.60;;;;;;5016425;28;20407;-86
2022/05/16 10:19:18;;;;;;;2.10;0.70;;;12.30;93.30;;;;;;5010575;28;20781;-86
2022/05/16 10:22:15;;;;;;;1.20;0.50;;;12.30;91.00;;;;;;5018042;28;20504;-87
2022/05/16 10:24:52;;;;;;;2.05;0.70;;;12.30;94.40;;;;;;5048720;27;20461;-86
2022/05/16 10:27:36;;;;;;;3.05;0.73;;;12.30;93.80;;;;;;5014492;28;20434;-87
2022/05/16 10:30:12;;;;;;;2.22;0.60;;;12.30;95.30;;;;;;5010923;28;20409;-87
2022/05/16 10:35:34;;;;;;;0.75;0.50;;;12.50;95.30;;;;;;5017663;28;20451;-87
2022/05/16 10:38:22;;;;;;;1.53;0.60;;;12.50;92.40;;;;;;5026064;28;20500;-87
2022/05/16 10:40:57;;;;;;;2.95;0.60;;;12.50;91.70;;;;;;5021649;28;20417;-87
2022/05/16 10:43:41;;;;;;;2.90;0.70;;;12.50;92.70;;;;;;5012332;28;20417;-86
2022/05/16 10:46:16;;;;;;;1.83;0.70;;;12.50;92.70;;;;;;5008226;28;20491;-87
2022/05/16 10:49:24;;;;;;;2.63;0.82;;;12.70;94.10;;;;;;5003694;28;20766;-84
2022/05/16 10:51:58;;;;;;;2.72;0.65;;;12.60;91.00;;;;;;5013713;28;20986;-87
2022/05/16 10:54:31;;;;;;;5.13;0.90;;;12.70;93.50;;;;;;5008235;28;20641;-87
2022/05/16 10:57:07;;;;;;;2.50;0.80;;;12.80;91.30;;;;;;5015193;28;20407;-86
2022/05/16 11:00:06;;;;;;;2.60;0.80;;;12.90;92.60;;;;;;5004821;28;20435;-85
2022/05/16 11:02:54;;;;;;;2.37;0.50;;;12.80;92.20;;;;;;5009008;28;20419;-88
2022/05/16 11:05:38;;;;;;;2.15;0.60;;;12.90;92.00;;;;;;5010244;28;20483;-86
2022/05/16 11:08:32;;;;;;;1.30;0.63;;;13.10;92.70;;;;;;5009382;28;20414;-88
2022/05/16 11:11:16;;;;;;;1.45;0.60;;;13.20;91.50;;;;;;5004313;28;20590;-86
2022/05/16 11:14:24;;;;;;;1.17;0.70;;;13.20;90.90;;;;;;5015524;28;20404;-87
2022/05/16 11:16:56;;;;;;;2.65;0.60;;;13.10;90.00;;;;;;5014363;28;20488;-88
2022/05/16 11:19:36;;;;;;;3.15;0.60;;;12.90;89.30;;;;;;5015676;28;20415;-87
2022/05/16 11:22:04;;;;;;;1.58;0.60;;;12.80;90.60;;;;;;5031257;28;20409;-86
2022/05/16 11:24:52;;;;;;;3.28;0.80;;;13.10;89.50;;;;;;5033262;28;20404;-86
2022/05/16 11:27:31;;;;;;;2.05;0.52;;;13.30;93.50;;;;;;5047204;28;20482;-87
2022/05/16 11:30:19;;;;;;;2.40;0.57;;;13.30;88.40;;;;;;5033788;28;20408;-86
2022/05/16 11:32:59;;;;;;;1.85;0.65;;;13.30;92.90;;;;;;4994900;28;20400;-87
2022/05/16 11:35:44;;;;;;;1.92;0.55;;;13.30;91.60;;;;;;5018844;28;20402;-87
2022/05/16 11:38:33;;;;;;;1.47;0.60;;;13.10;88.50;;;;;;5029801;28;20412;-87
2022/05/16 11:41:08;;;;;;;2.33;0.60;;;13.20;90.80;;;;;;5015108;28;20538;-88
2022/05/16 11:43:48;;;;;;;3.10;0.70;;;13.10;87.60;;;;;;5015832;28;20452;-88
2022/05/16 11:46:26;;;;;;;8.32;1.00;;;13.00;90.70;;;;;;5015600;28;20497;-88
2022/05/16 11:49:15;;;;;;;2.80;0.70;;;13.30;92.60;;;;;;5013160;28;20410;-88
2022/05/16 11:52:15;;;;;;;1.80;0.60;;;13.40;91.80;;;;;;4996922;28;20425;-87
2022/05/16 11:55:02;;;;;;;1.80;0.50;;;13.40;91.90;;;;;;5033366;28;20398;-88
2022/05/16 12:02:58;;;;;;;1.67;0.52;;;13.80;90.00;;;;;;4990970;28;20420;-87
2022/05/16 12:05:39;;;;;;;2.78;0.60;;;13.80;91.00;;;;;;4993543;28;20402;-86
2022/05/16 12:08:13;;;;;;;3.03;0.68;;;13.70;90.30;;;;;;5006931;28;20908;-86
2022/05/16 12:11:00;;;;;;;2.70;0.65;;;13.60;91.30;;;;;;4995455;28;20393;-88
2022/05/16 12:13:35;;;;;;;0.80;0.43;;;13.60;91.10;;;;;;4997675;28;20405;-86
2022/05/16 12:16:19;;;;;;;0.70;0.40;;;13.50;90.80;;;;;;5001170;28;21352;-86
2022/05/16 12:18:50;;;;;;;1.48;0.50;;;13.50;91.90;;;;;;4997008;28;20401;-86
2022/05/16 12:21:32;;;;;;;0.77;0.50;;;13.30;92.40;;;;;;5032169;28;20409;-87
2022/05/16 12:24:04;;;;;;;2.10;0.47;;;13.50;93.10;;;;;;4997467;28;20406;-87
2022/05/16 12:27:03;;;;;;;4.43;0.50;;;13.70;92.10;;;;;;5006547;28;20422;-87
2022/05/16 12:29:43;;;;;;;2.40;0.40;;;13.90;92.10;;;;;;5001767;28;20888;-87
2022/05/16 12:32:29;;;;;;;2.13;0.53;;;13.80;92.50;;;;;;5013544;28;20397;-87
2022/05/16 12:35:07;;;;;;;2.80;0.60;;;13.90;93.40;;;;;;4994969;28;20415;-87
2022/05/16 12:37:37;;;;;;;4.95;0.80;;;14.10;92.90;;;;;;5015823;28;20413;-88
2022/05/16 12:40:05;;;;;;;1.63;0.50;;;14.10;92.30;;;;;;5015594;28;20405;-86
2022/05/16 12:42:54;;;;;;;3.50;0.50;;;14.20;92.30;;;;;;5019311;28;20403;-88
2022/05/16 12:45:52;;;;;;;3.85;0.50;;;14.20;92.80;;;;;;5014054;28;20751;-88
2022/05/16 12:48:49;;;;;;;1.70;0.50;;;14.40;92.40;;;;;;5013413;28;20490;-88
2022/05/16 12:51:50;;;;;;;3.50;0.50;;;14.20;92.90;;;;;;5020267;28;20397;-88
2022/05/16 12:55:01;;;;;;;3.70;0.90;;;14.30;93.30;;;;;;5010184;28;20760;-88
2022/05/16 12:57:42;;;;;;;1.92;0.40;;;14.40;93.40;;;;;;5049672;28;20415;-88
2022/05/16 13:00:40;;;;;;;2.63;0.40;;;14.60;92.70;;;;;;5011075;28;20509;-88
2022/05/16 13:03:22;;;;;;;3.90;0.50;;;14.50;92.40;;;;;;5017872;28;20443;-85
2022/05/16 13:06:24;;;;;;;1.83;0.70;;;14.70;93.50;;;;;;5015594;28;20389;-87
2022/05/16 13:09:19;;;;;;;2.90;0.50;;;14.60;91.70;;;;;;5008660;28;20429;-86
2022/05/16 13:12:02;;;;;;;2.85;0.70;;;14.40;92.90;;;;;;5012380;28;20854;-87
2022/05/16 13:14:33;;;;;;;2.33;0.60;;;14.30;93.60;;;;;;5047241;28;20498;-88
2022/05/16 13:17:10;;;;;;;3.42;0.70;;;14.40;92.90;;;;;;5024437;28;20413;-87
2022/05/16 13:19:44;;;;;;;3.20;0.65;;;14.60;92.90;;;;;;5008099;28;20906;-88
2022/05/16 13:22:21;;;;;;;3.80;0.60;;;14.20;93.00;;;;;;5019451;28;20441;-87
2022/05/16 13:24:54;;;;;;;2.30;0.50;;;13.90;93.10;;;;;;5016817;28;20398;-87
2022/05/16 13:30:18;;;;;;;3.30;0.60;;;13.50;94.30;;;;;;5000776;28;20502;-87
2022/05/16 13:32:47;;;;;;;3.45;0.47;;;13.60;94.60;;;;;;5022364;28;20411;-89
2022/05/16 13:35:36;;;;;;;1.30;0.55;;;14.00;93.10;;;;;;5019325;28;20405;-87
2022/05/16 13:38:07;;;;;;;9.55;0.80;;;14.10;93.20;;;;;;5007813;28;20492;-88
2022/05/16 13:40:39;;;;;;;5.45;0.90;;;13.90;93.30;;;;;;4991062;28;20396;-87
2022/05/16 13:43:15;;;;;;;4.80;0.80;;;13.70;93.60;;;;;;5019119;28;20481;-87
2022/05/16 13:45:43;;;;;;;4.30;0.50;;;13.50;93.70;;;;;;5044842;28;20463;-87
2022/05/16 13:48:15;;;;;;;1.48;0.50;;;13.40;94.00;;;;;;4999792;28;20397;-87
2022/05/16 13:50:44;;;;;;;4.50;0.70;;;13.40;94.80;;;;;;5056215;28;20450;-87
2022/05/16 13:53:17;;;;;;;2.25;0.60;;;13.60;94.50;;;;;;5014647;28;20468;-86
2022/05/16 13:55:47;;;;;;;3.30;0.70;;;13.90;94.30;;;;;;5009042;28;20472;-87
2022/05/16 13:58:16;;;;;;;4.45;0.75;;;13.80;94.20;;;;;;5019494;28;20420;-87
2022/05/16 14:00:50;;;;;;;6.07;0.60;;;13.80;94.20;;;;;;5018613;28;20883;-87
2022/05/16 14:03:55;;;;;;;4.30;0.70;;;13.90;94.10;;;;;;5040348;27;20415;-87
2022/05/16 14:06:31;;;;;;;2.22;0.75;;;14.10;94.40;;;;;;5035077;28;20766;-88
2022/05/16 14:09:12;;;;;;;2.67;0.60;;;14.10;93.80;;;;;;5017165;28;20424;-88